sensor_id;sensor_type;location;lat;lon;timestamp;temperature;humidity
12164;DHT22;6145;50.192;10.064;2023-03-14T00:00:08;10.20;99.90
12164;DHT22;6145;50.192;10.064;2023-03-14T00:02:35;10.20;99.90
12164;DHT22;6145;50.192;10.064;2023-03-14T00:05:02;10.20;99.90
12164;DHT22;6145;50.192;10.064;2023-03-14T00:07:34;10.20;99.90
12164;DHT22;6145;50.192;10.064;2023-03-14T00:10:02;10.30;99.90
12164;DHT22;6145;50.192;10.064;2023-03-14T00:12:30;10.00;99.90
12164;DHT22;6145;50.192;10.064;2023-03-14T00:14:57;10.80;99.90
12164;DHT22;6145;50.192;10.064;2023-03-14T00:17:25;10.10;99.90
12164;DHT22;6145;50.192;10.064;2023-03-14T00:19:52;11.20;99.90
12164;DHT22;6145;50.192;10.064;2023-03-14T00:22:19;10.10;99.90
12164;DHT22;6145;50.192;10.064;2023-03-14T00:24:48;10.10;99.90
12164;DHT22;6145;50.192;10.064;2023-03-14T00:27:14;10.20;99.90
12164;DHT22;6145;50.192;10.064;2023-03-14T00:29:42;10.30;99.90
12164;DHT22;6145;50.192;10.064;2023-03-14T00:32:09;10.20;99.90
12164;DHT22;6145;50.192;10.064;2023-03-14T00:34:36;10.20;99.90
12164;DHT22;6145;50.192;10.064;2023-03-14T00:37:03;10.20;99.90
12164;DHT22;6145;50.192;10.064;2023-03-14T00:39:30;10.10;99.90
12164;DHT22;6145;50.192;10.064;2023-03-14T00:42:09;10.20;99.90
12164;DHT22;6145;50.192;10.064;2023-03-14T00:44:36;10.20;99.90
12164;DHT22;6145;50.192;10.064;2023-03-14T00:47:03;10.30;99.90
12164;DHT22;6145;50.192;10.064;2023-03-14T00:49:30;10.10;99.90
12164;DHT22;6145;50.192;10.064;2023-03-14T00:51:57;10.20;99.90
12164;DHT22;6145;50.192;10.064;2023-03-14T00:54:24;10.20;99.90
12164;DHT22;6145;50.192;10.064;2023-03-14T00:56:51;10.20;99.90
12164;DHT22;6145;50.192;10.064;2023-03-14T00:59:19;10.10;99.90
12164;DHT22;6145;50.192;10.064;2023-03-14T01:01:46;10.20;99.90
12164;DHT22;6145;50.192;10.064;2023-03-14T01:04:13;10.20;99.90
12164;DHT22;6145;50.192;10.064;2023-03-14T01:06:39;10.20;99.90
12164;DHT22;6145;50.192;10.064;2023-03-14T01:09:06;10.10;99.90
12164;DHT22;6145;50.192;10.064;2023-03-14T01:11:34;10.50;99.90
12164;DHT22;6145;50.192;10.064;2023-03-14T01:14:03;10.10;99.90
12164;DHT22;6145;50.192;10.064;2023-03-14T01:16:33;10.30;99.90
12164;DHT22;6145;50.192;10.064;2023-03-14T01:19:00;10.80;99.90
12164;DHT22;6145;50.192;10.064;2023-03-14T01:21:29;10.10;99.90
12164;DHT22;6145;50.192;10.064;2023-03-14T01:23:58;10.20;99.90
12164;DHT22;6145;50.192;10.064;2023-03-14T01:26:27;10.20;99.90
12164;DHT22;6145;50.192;10.064;2023-03-14T01:28:55;10.20;99.90
12164;DHT22;6145;50.192;10.064;2023-03-14T01:31:23;10.20;99.90
12164;DHT22;6145;50.192;10.064;2023-03-14T01:33:52;10.10;99.90
12164;DHT22;6145;50.192;10.064;2023-03-14T01:36:19;10.10;99.90
12164;DHT22;6145;50.192;10.064;2023-03-14T01:38:46;10.20;99.90
12164;DHT22;6145;50.192;10.064;2023-03-14T01:41:15;10.20;99.90
12164;DHT22;6145;50.192;10.064;2023-03-14T01:43:43;10.20;99.90
12164;DHT22;6145;50.192;10.064;2023-03-14T01:46:28;10.20;99.90
12164;DHT22;6145;50.192;10.064;2023-03-14T01:49:11;10.20;99.90
12164;DHT22;6145;50.192;10.064;2023-03-14T01:51:44;10.20;99.90
12164;DHT22;6145;50.192;10.064;2023-03-14T01:54:16;10.20;99.90
12164;DHT22;6145;50.192;10.064;2023-03-14T01:56:47;10.20;99.90
12164;DHT22;6145;50.192;10.064;2023-03-14T01:59:16;10.20;99.90
12164;DHT22;6145;50.192;10.064;2023-03-14T02:01:45;10.10;99.90
12164;DHT22;6145;50.192;10.064;2023-03-14T02:04:14;10.20;99.90
12164;DHT22;6145;50.192;10.064;2023-03-14T02:06:49;10.20;99.90
12164;DHT22;6145;50.192;10.064;2023-03-14T02:09:17;11.00;99.90
12164;DHT22;6145;50.192;10.064;2023-03-14T02:11:44;10.20;99.90
12164;DHT22;6145;50.192;10.064;2023-03-14T02:14:20;10.20;99.90
12164;DHT22;6145;50.192;10.064;2023-03-14T02:16:47;10.20;99.90
12164;DHT22;6145;50.192;10.064;2023-03-14T02:19:18;10.20;99.90
12164;DHT22;6145;50.192;10.064;2023-03-14T02:21:54;10.10;99.90
12164;DHT22;6145;50.192;10.064;2023-03-14T02:24:30;10.20;99.90
12164;DHT22;6145;50.192;10.064;2023-03-14T02:27:06;10.20;99.90
12164;DHT22;6145;50.192;10.064;2023-03-14T02:29:34;10.20;99.90
12164;DHT22;6145;50.192;10.064;2023-03-14T02:32:03;10.20;99.90
12164;DHT22;6145;50.192;10.064;2023-03-14T02:34:30;10.20;99.90
12164;DHT22;6145;50.192;10.064;2023-03-14T02:36:58;10.20;99.90
12164;DHT22;6145;50.192;10.064;2023-03-14T02:39:32;10.30;99.90
12164;DHT22;6145;50.192;10.064;2023-03-14T02:42:01;10.20;99.90
12164;DHT22;6145;50.192;10.064;2023-03-14T02:44:30;10.20;99.90
12164;DHT22;6145;50.192;10.064;2023-03-14T02:46:57;10.40;99.90
12164;DHT22;6145;50.192;10.064;2023-03-14T02:49:25;10.40;99.90
12164;DHT22;6145;50.192;10.064;2023-03-14T02:51:53;10.20;99.90
12164;DHT22;6145;50.192;10.064;2023-03-14T02:54:20;10.40;99.90
12164;DHT22;6145;50.192;10.064;2023-03-14T02:56:47;10.70;99.90
12164;DHT22;6145;50.192;10.064;2023-03-14T02:59:14;10.20;99.90
12164;DHT22;6145;50.192;10.064;2023-03-14T03:01:42;10.20;99.90
12164;DHT22;6145;50.192;10.064;2023-03-14T03:04:09;10.20;99.90
12164;DHT22;6145;50.192;10.064;2023-03-14T03:06:36;10.30;99.90
12164;DHT22;6145;50.192;10.064;2023-03-14T03:09:03;10.30;99.90
12164;DHT22;6145;50.192;10.064;2023-03-14T03:11:30;10.10;99.90
12164;DHT22;6145;50.192;10.064;2023-03-14T03:13:57;10.20;99.90
12164;DHT22;6145;50.192;10.064;2023-03-14T03:16:23;10.10;99.90
12164;DHT22;6145;50.192;10.064;2023-03-14T03:18:52;10.20;99.90
12164;DHT22;6145;50.192;10.064;2023-03-14T03:21:18;10.30;99.90
12164;DHT22;6145;50.192;10.064;2023-03-14T03:23:48;10.10;99.90
12164;DHT22;6145;50.192;10.064;2023-03-14T03:26:15;10.10;99.90
12164;DHT22;6145;50.192;10.064;2023-03-14T03:28:42;10.20;99.90
12164;DHT22;6145;50.192;10.064;2023-03-14T03:31:10;10.10;99.90
12164;DHT22;6145;50.192;10.064;2023-03-14T03:33:37;10.10;99.90
12164;DHT22;6145;50.192;10.064;2023-03-14T03:36:06;10.10;99.90
12164;DHT22;6145;50.192;10.064;2023-03-14T03:38:33;10.10;99.90
12164;DHT22;6145;50.192;10.064;2023-03-14T03:41:02;10.10;99.90
12164;DHT22;6145;50.192;10.064;2023-03-14T03:43:29;10.10;99.90
12164;DHT22;6145;50.192;10.064;2023-03-14T03:45:56;10.10;99.90
12164;DHT22;6145;50.192;10.064;2023-03-14T03:48:23;10.10;99.90
12164;DHT22;6145;50.192;10.064;2023-03-14T03:50:49;10.00;99.90
12164;DHT22;6145;50.192;10.064;2023-03-14T03:53:18;11.40;99.90
12164;DHT22;6145;50.192;10.064;2023-03-14T03:55:44;10.20;99.90
12164;DHT22;6145;50.192;10.064;2023-03-14T03:58:11;10.10;99.90
12164;DHT22;6145;50.192;10.064;2023-03-14T04:00:38;10.10;99.90
12164;DHT22;6145;50.192;10.064;2023-03-14T04:03:05;10.10;99.90
12164;DHT22;6145;50.192;10.064;2023-03-14T04:05:32;10.10;99.90
12164;DHT22;6145;50.192;10.064;2023-03-14T04:07:59;10.20;99.90
12164;DHT22;6145;50.192;10.064;2023-03-14T04:10:28;10.10;99.90
12164;DHT22;6145;50.192;10.064;2023-03-14T04:12:54;10.60;99.90
12164;DHT22;6145;50.192;10.064;2023-03-14T04:15:21;10.10;99.90
12164;DHT22;6145;50.192;10.064;2023-03-14T04:17:48;10.10;99.90
12164;DHT22;6145;50.192;10.064;2023-03-14T04:20:15;10.00;99.90
12164;DHT22;6145;50.192;10.064;2023-03-14T04:22:42;10.00;99.90
12164;DHT22;6145;50.192;10.064;2023-03-14T04:25:09;10.00;99.90
12164;DHT22;6145;50.192;10.064;2023-03-14T04:27:37;10.00;99.90
12164;DHT22;6145;50.192;10.064;2023-03-14T04:30:04;10.00;99.90
12164;DHT22;6145;50.192;10.064;2023-03-14T04:32:31;10.00;99.90
12164;DHT22;6145;50.192;10.064;2023-03-14T04:34:58;10.00;99.90
12164;DHT22;6145;50.192;10.064;2023-03-14T04:37:25;10.00;99.90
12164;DHT22;6145;50.192;10.064;2023-03-14T04:39:52;9.90;99.90
12164;DHT22;6145;50.192;10.064;2023-03-14T04:42:19;9.90;99.90
12164;DHT22;6145;50.192;10.064;2023-03-14T04:44:47;9.90;99.90
12164;DHT22;6145;50.192;10.064;2023-03-14T04:47:15;9.90;99.90
12164;DHT22;6145;50.192;10.064;2023-03-14T04:49:41;9.90;99.90
12164;DHT22;6145;50.192;10.064;2023-03-14T04:52:08;9.80;99.90
12164;DHT22;6145;50.192;10.064;2023-03-14T04:54:35;9.80;99.90
12164;DHT22;6145;50.192;10.064;2023-03-14T04:57:02;10.60;99.90
12164;DHT22;6145;50.192;10.064;2023-03-14T04:59:29;9.80;99.90
12164;DHT22;6145;50.192;10.064;2023-03-14T05:01:57;9.80;99.90
12164;DHT22;6145;50.192;10.064;2023-03-14T05:04:24;10.00;99.90
12164;DHT22;6145;50.192;10.064;2023-03-14T05:06:51;9.80;99.90
12164;DHT22;6145;50.192;10.064;2023-03-14T05:09:18;9.80;99.90
12164;DHT22;6145;50.192;10.064;2023-03-14T05:11:45;9.70;99.90
12164;DHT22;6145;50.192;10.064;2023-03-14T05:14:12;9.70;99.90
12164;DHT22;6145;50.192;10.064;2023-03-14T05:16:39;9.80;99.90
12164;DHT22;6145;50.192;10.064;2023-03-14T05:19:08;9.80;99.90
12164;DHT22;6145;50.192;10.064;2023-03-14T05:21:36;9.90;99.90
12164;DHT22;6145;50.192;10.064;2023-03-14T05:24:04;10.00;99.90
12164;DHT22;6145;50.192;10.064;2023-03-14T05:26:31;9.80;99.90
12164;DHT22;6145;50.192;10.064;2023-03-14T05:28:58;9.80;99.90
12164;DHT22;6145;50.192;10.064;2023-03-14T05:31:25;9.80;99.90
12164;DHT22;6145;50.192;10.064;2023-03-14T05:33:51;9.70;99.90
12164;DHT22;6145;50.192;10.064;2023-03-14T05:36:20;9.70;99.90
12164;DHT22;6145;50.192;10.064;2023-03-14T05:38:46;9.80;99.90
12164;DHT22;6145;50.192;10.064;2023-03-14T05:41:16;9.80;99.90
12164;DHT22;6145;50.192;10.064;2023-03-14T05:43:46;9.80;99.90
12164;DHT22;6145;50.192;10.064;2023-03-14T05:46:16;9.70;99.90
12164;DHT22;6145;50.192;10.064;2023-03-14T05:48:43;8.80;99.90
12164;DHT22;6145;50.192;10.064;2023-03-14T05:51:17;9.80;99.90
12164;DHT22;6145;50.192;10.064;2023-03-14T05:53:58;9.70;99.90
12164;DHT22;6145;50.192;10.064;2023-03-14T05:56:39;9.70;99.90
12164;DHT22;6145;50.192;10.064;2023-03-14T05:59:08;9.70;99.90
12164;DHT22;6145;50.192;10.064;2023-03-14T06:01:43;9.70;99.90
12164;DHT22;6145;50.192;10.064;2023-03-14T06:04:14;9.70;99.90
12164;DHT22;6145;50.192;10.064;2023-03-14T06:06:41;9.70;99.90
12164;DHT22;6145;50.192;10.064;2023-03-14T06:09:09;9.70;99.90
12164;DHT22;6145;50.192;10.064;2023-03-14T06:11:36;9.80;99.90
12164;DHT22;6145;50.192;10.064;2023-03-14T06:14:03;10.10;99.90
12164;DHT22;6145;50.192;10.064;2023-03-14T06:16:30;9.70;99.90
12164;DHT22;6145;50.192;10.064;2023-03-14T06:18:57;9.70;99.90
12164;DHT22;6145;50.192;10.064;2023-03-14T06:21:25;9.70;99.90
12164;DHT22;6145;50.192;10.064;2023-03-14T06:23:52;9.70;99.90
12164;DHT22;6145;50.192;10.064;2023-03-14T06:26:20;9.70;99.90
12164;DHT22;6145;50.192;10.064;2023-03-14T06:28:47;9.70;99.90
12164;DHT22;6145;50.192;10.064;2023-03-14T06:35:04;9.70;99.90
12164;DHT22;6145;50.192;10.064;2023-03-14T06:37:31;9.80;99.90
12164;DHT22;6145;50.192;10.064;2023-03-14T06:39:58;10.70;99.90
12164;DHT22;6145;50.192;10.064;2023-03-14T06:42:26;9.70;99.90
12164;DHT22;6145;50.192;10.064;2023-03-14T06:44:53;9.70;99.90
12164;DHT22;6145;50.192;10.064;2023-03-14T06:47:20;9.80;99.90
12164;DHT22;6145;50.192;10.064;2023-03-14T06:49:47;9.80;99.90
12164;DHT22;6145;50.192;10.064;2023-03-14T06:52:13;9.80;99.90
12164;DHT22;6145;50.192;10.064;2023-03-14T06:54:40;9.80;99.90
12164;DHT22;6145;50.192;10.064;2023-03-14T06:57:07;10.80;99.90
12164;DHT22;6145;50.192;10.064;2023-03-14T06:59:35;9.80;99.90
12164;DHT22;6145;50.192;10.064;2023-03-14T07:02:02;9.90;99.90
12164;DHT22;6145;50.192;10.064;2023-03-14T07:04:32;9.90;99.90
12164;DHT22;6145;50.192;10.064;2023-03-14T07:06:58;9.80;99.90
12164;DHT22;6145;50.192;10.064;2023-03-14T07:09:25;9.90;99.90
12164;DHT22;6145;50.192;10.064;2023-03-14T07:11:52;9.90;99.90
12164;DHT22;6145;50.192;10.064;2023-03-14T07:14:19;9.90;99.90
12164;DHT22;6145;50.192;10.064;2023-03-14T07:16:47;9.90;99.90
12164;DHT22;6145;50.192;10.064;2023-03-14T07:19:14;10.30;99.90
12164;DHT22;6145;50.192;10.064;2023-03-14T07:21:41;9.90;99.90
12164;DHT22;6145;50.192;10.064;2023-03-14T07:24:08;9.90;99.90
12164;DHT22;6145;50.192;10.064;2023-03-14T07:26:36;9.90;99.90
12164;DHT22;6145;50.192;10.064;2023-03-14T07:29:04;10.70;99.90
12164;DHT22;6145;50.192;10.064;2023-03-14T07:31:31;10.70;99.90
12164;DHT22;6145;50.192;10.064;2023-03-14T07:34:00;10.00;99.90
12164;DHT22;6145;50.192;10.064;2023-03-14T07:36:26;10.00;99.90
12164;DHT22;6145;50.192;10.064;2023-03-14T07:38:53;10.00;99.90
12164;DHT22;6145;50.192;10.064;2023-03-14T07:41:20;10.00;99.90
12164;DHT22;6145;50.192;10.064;2023-03-14T07:43:48;10.10;99.90
12164;DHT22;6145;50.192;10.064;2023-03-14T07:46:15;10.10;99.90
12164;DHT22;6145;50.192;10.064;2023-03-14T07:48:42;10.10;99.90
12164;DHT22;6145;50.192;10.064;2023-03-14T07:51:11;10.20;99.90
12164;DHT22;6145;50.192;10.064;2023-03-14T07:53:37;10.20;99.90
12164;DHT22;6145;50.192;10.064;2023-03-14T07:56:05;10.30;99.90
12164;DHT22;6145;50.192;10.064;2023-03-14T07:58:32;10.30;99.90
12164;DHT22;6145;50.192;10.064;2023-03-14T08:00:59;10.30;99.90
12164;DHT22;6145;50.192;10.064;2023-03-14T08:03:26;10.30;99.90
12164;DHT22;6145;50.192;10.064;2023-03-14T08:05:58;10.30;99.90
12164;DHT22;6145;50.192;10.064;2023-03-14T08:08:27;10.50;99.90
12164;DHT22;6145;50.192;10.064;2023-03-14T08:10:53;10.30;99.90
12164;DHT22;6145;50.192;10.064;2023-03-14T08:13:20;10.30;99.90
12164;DHT22;6145;50.192;10.064;2023-03-14T08:15:49;10.30;99.90
12164;DHT22;6145;50.192;10.064;2023-03-14T08:18:16;10.40;99.90
12164;DHT22;6145;50.192;10.064;2023-03-14T08:20:43;10.30;99.90
12164;DHT22;6145;50.192;10.064;2023-03-14T08:23:10;10.50;99.90
12164;DHT22;6145;50.192;10.064;2023-03-14T08:25:38;10.60;99.90
12164;DHT22;6145;50.192;10.064;2023-03-14T08:28:05;10.30;99.90
12164;DHT22;6145;50.192;10.064;2023-03-14T08:30:32;10.40;99.90
12164;DHT22;6145;50.192;10.064;2023-03-14T08:33:01;10.40;99.90
12164;DHT22;6145;50.192;10.064;2023-03-14T08:35:31;10.60;99.90
12164;DHT22;6145;50.192;10.064;2023-03-14T08:37:58;11.20;99.90
12164;DHT22;6145;50.192;10.064;2023-03-14T08:40:29;10.50;99.90
12164;DHT22;6145;50.192;10.064;2023-03-14T08:42:57;10.50;99.90
12164;DHT22;6145;50.192;10.064;2023-03-14T08:45:24;10.40;99.90
12164;DHT22;6145;50.192;10.064;2023-03-14T08:47:51;10.50;99.90
12164;DHT22;6145;50.192;10.064;2023-03-14T08:50:21;10.30;99.90
12164;DHT22;6145;50.192;10.064;2023-03-14T08:52:49;10.60;99.90
12164;DHT22;6145;50.192;10.064;2023-03-14T08:55:19;10.70;99.90
12164;DHT22;6145;50.192;10.064;2023-03-14T08:57:46;10.80;99.90
12164;DHT22;6145;50.192;10.064;2023-03-14T09:00:16;10.70;99.90
12164;DHT22;6145;50.192;10.064;2023-03-14T09:02:46;10.80;99.90
12164;DHT22;6145;50.192;10.064;2023-03-14T09:05:14;10.80;99.90
12164;DHT22;6145;50.192;10.064;2023-03-14T09:07:41;11.40;99.90
12164;DHT22;6145;50.192;10.064;2023-03-14T09:10:10;11.20;99.90
12164;DHT22;6145;50.192;10.064;2023-03-14T09:12:37;11.10;99.90
12164;DHT22;6145;50.192;10.064;2023-03-14T09:15:04;11.20;99.90
12164;DHT22;6145;50.192;10.064;2023-03-14T09:17:32;11.20;99.90
12164;DHT22;6145;50.192;10.064;2023-03-14T09:19:59;11.30;99.90
12164;DHT22;6145;50.192;10.064;2023-03-14T09:22:26;11.70;99.90
12164;DHT22;6145;50.192;10.064;2023-03-14T09:24:53;11.40;99.90
12164;DHT22;6145;50.192;10.064;2023-03-14T09:27:20;11.80;99.90
12164;DHT22;6145;50.192;10.064;2023-03-14T09:29:47;11.40;99.90
12164;DHT22;6145;50.192;10.064;2023-03-14T09:32:14;11.40;99.90
12164;DHT22;6145;50.192;10.064;2023-03-14T09:34:42;11.40;99.90
12164;DHT22;6145;50.192;10.064;2023-03-14T09:37:09;11.40;99.90
12164;DHT22;6145;50.192;10.064;2023-03-14T09:39:36;11.40;99.90
12164;DHT22;6145;50.192;10.064;2023-03-14T09:42:06;11.40;99.90
12164;DHT22;6145;50.192;10.064;2023-03-14T09:44:37;11.40;99.90
12164;DHT22;6145;50.192;10.064;2023-03-14T09:47:06;11.40;99.90
12164;DHT22;6145;50.192;10.064;2023-03-14T09:49:36;11.30;99.90
12164;DHT22;6145;50.192;10.064;2023-03-14T09:52:10;11.20;99.90
12164;DHT22;6145;50.192;10.064;2023-03-14T09:54:42;11.40;99.90
12164;DHT22;6145;50.192;10.064;2023-03-14T09:57:13;11.20;99.90
12164;DHT22;6145;50.192;10.064;2023-03-14T09:59:42;12.00;99.90
12164;DHT22;6145;50.192;10.064;2023-03-14T10:02:16;11.20;99.90
12164;DHT22;6145;50.192;10.064;2023-03-14T10:04:45;12.00;99.90
12164;DHT22;6145;50.192;10.064;2023-03-14T10:07:16;11.20;99.90
12164;DHT22;6145;50.192;10.064;2023-03-14T10:09:46;11.20;99.90
12164;DHT22;6145;50.192;10.064;2023-03-14T10:12:14;11.20;99.90
12164;DHT22;6145;50.192;10.064;2023-03-14T10:14:46;11.20;99.90
12164;DHT22;6145;50.192;10.064;2023-03-14T10:17:14;11.30;99.90
12164;DHT22;6145;50.192;10.064;2023-03-14T10:19:54;11.20;99.90
12164;DHT22;6145;50.192;10.064;2023-03-14T10:22:24;11.30;99.90
12164;DHT22;6145;50.192;10.064;2023-03-14T10:24:53;11.30;99.90
12164;DHT22;6145;50.192;10.064;2023-03-14T10:27:30;11.10;99.90
12164;DHT22;6145;50.192;10.064;2023-03-14T10:29:59;11.40;99.90
12164;DHT22;6145;50.192;10.064;2023-03-14T10:32:32;11.30;99.90
12164;DHT22;6145;50.192;10.064;2023-03-14T10:35:06;11.40;99.90
12164;DHT22;6145;50.192;10.064;2023-03-14T10:37:50;11.40;99.90
12164;DHT22;6145;50.192;10.064;2023-03-14T10:40:27;11.40;99.90
12164;DHT22;6145;50.192;10.064;2023-03-14T10:42:55;11.60;99.90
12164;DHT22;6145;50.192;10.064;2023-03-14T10:45:32;12.80;99.90
12164;DHT22;6145;50.192;10.064;2023-03-14T10:48:05;11.40;99.90
12164;DHT22;6145;50.192;10.064;2023-03-14T10:50:33;11.60;99.90
12164;DHT22;6145;50.192;10.064;2023-03-14T10:53:03;11.50;99.90
12164;DHT22;6145;50.192;10.064;2023-03-14T10:55:41;11.50;99.90
12164;DHT22;6145;50.192;10.064;2023-03-14T10:58:22;11.50;99.90
12164;DHT22;6145;50.192;10.064;2023-03-14T11:00:54;11.50;99.90
12164;DHT22;6145;50.192;10.064;2023-03-14T11:03:24;11.40;99.90
12164;DHT22;6145;50.192;10.064;2023-03-14T11:05:56;11.30;99.90
12164;DHT22;6145;50.192;10.064;2023-03-14T11:08:29;11.60;99.90
12164;DHT22;6145;50.192;10.064;2023-03-14T11:11:10;11.40;99.90
12164;DHT22;6145;50.192;10.064;2023-03-14T11:13:45;11.50;99.90
12164;DHT22;6145;50.192;10.064;2023-03-14T11:16:22;11.50;99.90
12164;DHT22;6145;50.192;10.064;2023-03-14T11:19:14;11.60;99.90
12164;DHT22;6145;50.192;10.064;2023-03-14T11:21:48;11.60;99.90
12164;DHT22;6145;50.192;10.064;2023-03-14T11:24:41;11.60;99.90
12164;DHT22;6145;50.192;10.064;2023-03-14T11:27:16;11.70;99.90
12164;DHT22;6145;50.192;10.064;2023-03-14T11:29:50;11.80;99.90
12164;DHT22;6145;50.192;10.064;2023-03-14T11:32:25;11.90;99.90
12164;DHT22;6145;50.192;10.064;2023-03-14T11:34:55;11.80;99.90
12164;DHT22;6145;50.192;10.064;2023-03-14T11:37:25;11.80;99.90
12164;DHT22;6145;50.192;10.064;2023-03-14T11:40:00;12.20;99.90
12164;DHT22;6145;50.192;10.064;2023-03-14T11:42:33;11.70;99.90
12164;DHT22;6145;50.192;10.064;2023-03-14T11:45:00;12.00;99.90
12164;DHT22;6145;50.192;10.064;2023-03-14T11:47:31;12.40;99.90
12164;DHT22;6145;50.192;10.064;2023-03-14T11:50:03;11.80;99.90
12164;DHT22;6145;50.192;10.064;2023-03-14T11:52:34;11.80;99.90
12164;DHT22;6145;50.192;10.064;2023-03-14T11:55:07;11.70;99.90
12164;DHT22;6145;50.192;10.064;2023-03-14T11:57:38;11.80;99.90
12164;DHT22;6145;50.192;10.064;2023-03-14T12:00:16;11.70;99.90
12164;DHT22;6145;50.192;10.064;2023-03-14T12:02:50;11.60;99.90
12164;DHT22;6145;50.192;10.064;2023-03-14T12:05:51;11.60;99.90
12164;DHT22;6145;50.192;10.064;2023-03-14T12:08:39;11.60;99.90
12164;DHT22;6145;50.192;10.064;2023-03-14T12:15:03;11.60;99.90
12164;DHT22;6145;50.192;10.064;2023-03-14T12:58:37;11.20;99.90
12164;DHT22;6145;50.192;10.064;2023-03-14T13:46:05;10.60;99.90
12164;DHT22;6145;50.192;10.064;2023-03-14T13:52:20;10.30;99.90
12164;DHT22;6145;50.192;10.064;2023-03-14T13:55:14;10.20;99.90
12164;DHT22;6145;50.192;10.064;2023-03-14T13:57:45;10.20;99.90
12164;DHT22;6145;50.192;10.064;2023-03-14T14:00:20;10.00;99.90
12164;DHT22;6145;50.192;10.064;2023-03-14T14:02:50;10.00;99.90
12164;DHT22;6145;50.192;10.064;2023-03-14T14:05:18;10.00;99.90
12164;DHT22;6145;50.192;10.064;2023-03-14T14:07:45;9.90;99.90
12164;DHT22;6145;50.192;10.064;2023-03-14T14:10:13;9.90;99.90
12164;DHT22;6145;50.192;10.064;2023-03-14T14:13:09;9.80;99.90
12164;DHT22;6145;50.192;10.064;2023-03-14T16:08:12;9.30;98.70
12164;DHT22;6145;50.192;10.064;2023-03-14T16:10:50;9.30;98.20
12164;DHT22;6145;50.192;10.064;2023-03-14T16:13:52;9.30;98.50
12164;DHT22;6145;50.192;10.064;2023-03-14T16:17:13;9.60;99.00
12164;DHT22;6145;50.192;10.064;2023-03-14T16:19:43;9.20;98.40
12164;DHT22;6145;50.192;10.064;2023-03-14T16:22:10;9.10;98.60
12164;DHT22;6145;50.192;10.064;2023-03-14T16:24:54;9.10;98.40
12164;DHT22;6145;50.192;10.064;2023-03-14T16:27:28;9.10;98.40
12164;DHT22;6145;50.192;10.064;2023-03-14T16:29:57;9.00;98.40
12164;DHT22;6145;50.192;10.064;2023-03-14T16:32:25;9.00;98.80
12164;DHT22;6145;50.192;10.064;2023-03-14T16:34:58;9.80;98.90
12164;DHT22;6145;50.192;10.064;2023-03-14T16:37:28;8.80;98.10
12164;DHT22;6145;50.192;10.064;2023-03-14T16:39:56;8.90;98.20
12164;DHT22;6145;50.192;10.064;2023-03-14T16:56:00;8.90;98.10
12164;DHT22;6145;50.192;10.064;2023-03-14T16:58:27;8.80;97.50
12164;DHT22;6145;50.192;10.064;2023-03-14T17:00:58;8.80;98.00
12164;DHT22;6145;50.192;10.064;2023-03-14T17:03:35;8.80;98.00
12164;DHT22;6145;50.192;10.064;2023-03-14T17:06:01;8.70;97.70
12164;DHT22;6145;50.192;10.064;2023-03-14T17:08:29;8.60;97.90
12164;DHT22;6145;50.192;10.064;2023-03-14T17:10:56;8.70;97.70
12164;DHT22;6145;50.192;10.064;2023-03-14T17:13:24;8.60;97.80
12164;DHT22;6145;50.192;10.064;2023-03-14T17:15:53;8.60;97.80
12164;DHT22;6145;50.192;10.064;2023-03-14T17:18:20;8.60;97.90
12164;DHT22;6145;50.192;10.064;2023-03-14T17:20:47;8.70;98.10
12164;DHT22;6145;50.192;10.064;2023-03-14T17:23:13;8.60;97.70
12164;DHT22;6145;50.192;10.064;2023-03-14T17:25:41;8.50;98.00
12164;DHT22;6145;50.192;10.064;2023-03-14T17:28:09;8.60;98.20
12164;DHT22;6145;50.192;10.064;2023-03-14T17:30:37;9.50;98.50
12164;DHT22;6145;50.192;10.064;2023-03-14T17:33:04;9.80;98.50
12164;DHT22;6145;50.192;10.064;2023-03-14T17:35:31;8.50;97.60
12164;DHT22;6145;50.192;10.064;2023-03-14T17:37:58;8.50;97.50
12164;DHT22;6145;50.192;10.064;2023-03-14T17:40:32;8.50;97.20
12164;DHT22;6145;50.192;10.064;2023-03-14T17:43:16;8.50;97.50
12164;DHT22;6145;50.192;10.064;2023-03-14T17:49:05;8.40;97.60
12164;DHT22;6145;50.192;10.064;2023-03-14T17:51:41;9.60;98.10
12164;DHT22;6145;50.192;10.064;2023-03-14T17:54:10;8.30;97.60
12164;DHT22;6145;50.192;10.064;2023-03-14T17:56:40;8.20;96.80
